sensor_id;sensor_type;location;lat;lon;timestamp;pressure;altitude;pressure_sealevel;temperature;humidity
10921;BME280;5513;50.580;8.818;2023-02-04T00:00:32;100273.28;;;7.49;100.00
10921;BME280;5513;50.580;8.818;2023-02-04T00:03:04;100280.16;;;7.55;100.00
10921;BME280;5513;50.580;8.818;2023-02-04T00:05:33;100282.19;;;7.46;100.00
10921;BME280;5513;50.580;8.818;2023-02-04T00:08:03;100288.25;;;7.49;100.00
10921;BME280;5513;50.580;8.818;2023-02-04T00:10:32;100289.91;;;7.51;100.00
10921;BME280;5513;50.580;8.818;2023-02-04T00:13:00;100282.06;;;7.50;100.00
10921;BME280;5513;50.580;8.818;2023-02-04T00:15:29;100291.81;;;7.47;100.00
10921;BME280;5513;50.580;8.818;2023-02-04T00:18:02;100299.78;;;7.46;100.00
10921;BME280;5513;50.580;8.818;2023-02-04T00:20:32;100279.78;;;7.39;100.00
10921;BME280;5513;50.580;8.818;2023-02-04T00:23:01;100287.69;;;7.39;100.00
10921;BME280;5513;50.580;8.818;2023-02-04T00:25:29;100293.22;;;7.31;100.00
10921;BME280;5513;50.580;8.818;2023-02-04T00:27:59;100303.97;;;7.25;100.00
10921;BME280;5513;50.580;8.818;2023-02-04T00:30:28;100310.97;;;7.26;100.00
10921;BME280;5513;50.580;8.818;2023-02-04T00:32:57;100304.16;;;7.19;100.00
10921;BME280;5513;50.580;8.818;2023-02-04T00:35:27;100306.16;;;7.11;100.00
10921;BME280;5513;50.580;8.818;2023-02-04T00:37:55;100312.34;;;7.10;100.00
10921;BME280;5513;50.580;8.818;2023-02-04T00:40:23;100319.44;;;7.08;100.00
10921;BME280;5513;50.580;8.818;2023-02-04T00:42:52;100308.22;;;7.01;100.00
10921;BME280;5513;50.580;8.818;2023-02-04T00:45:21;100309.31;;;6.94;100.00
10921;BME280;5513;50.580;8.818;2023-02-04T00:47:50;100312.09;;;6.89;100.00
10921;BME280;5513;50.580;8.818;2023-02-04T00:50:18;100315.75;;;6.85;100.00
10921;BME280;5513;50.580;8.818;2023-02-04T00:52:50;100304.16;;;6.91;100.00
10921;BME280;5513;50.580;8.818;2023-02-04T00:55:18;100307.88;;;6.84;100.00
10921;BME280;5513;50.580;8.818;2023-02-04T00:57:47;100308.81;;;6.81;100.00
10921;BME280;5513;50.580;8.818;2023-02-04T01:00:17;100316.63;;;6.84;100.00
10921;BME280;5513;50.580;8.818;2023-02-04T01:02:45;100330.81;;;6.80;100.00
10921;BME280;5513;50.580;8.818;2023-02-04T01:05:16;100349.59;;;6.68;100.00
10921;BME280;5513;50.580;8.818;2023-02-04T01:07:45;100339.28;;;6.60;100.00
10921;BME280;5513;50.580;8.818;2023-02-04T01:10:15;100340.84;;;6.68;100.00
10921;BME280;5513;50.580;8.818;2023-02-04T01:12:44;100330.47;;;6.62;100.00
10921;BME280;5513;50.580;8.818;2023-02-04T01:15:12;100343.22;;;6.77;100.00
10921;BME280;5513;50.580;8.818;2023-02-04T01:17:41;100341.56;;;6.73;100.00
10921;BME280;5513;50.580;8.818;2023-02-04T01:20:10;100338.00;;;6.74;100.00
10921;BME280;5513;50.580;8.818;2023-02-04T01:22:39;100343.69;;;6.60;100.00
10921;BME280;5513;50.580;8.818;2023-02-04T01:25:07;100346.28;;;6.62;100.00
10921;BME280;5513;50.580;8.818;2023-02-04T01:27:37;100351.84;;;6.51;100.00
10921;BME280;5513;50.580;8.818;2023-02-04T01:30:06;100361.31;;;6.58;100.00
10921;BME280;5513;50.580;8.818;2023-02-04T01:32:35;100365.63;;;6.60;100.00
10921;BME280;5513;50.580;8.818;2023-02-04T01:35:05;100379.78;;;6.55;100.00
10921;BME280;5513;50.580;8.818;2023-02-04T01:37:33;100379.16;;;6.47;100.00
10921;BME280;5513;50.580;8.818;2023-02-04T01:40:02;100381.63;;;6.53;100.00
10921;BME280;5513;50.580;8.818;2023-02-04T01:42:31;100396.69;;;6.48;100.00
10921;BME280;5513;50.580;8.818;2023-02-04T01:45:01;100404.59;;;6.46;100.00
10921;BME280;5513;50.580;8.818;2023-02-04T01:47:32;100413.34;;;6.48;100.00
10921;BME280;5513;50.580;8.818;2023-02-04T01:50:02;100404.59;;;6.48;100.00
10921;BME280;5513;50.580;8.818;2023-02-04T01:52:33;100414.31;;;6.44;100.00
10921;BME280;5513;50.580;8.818;2023-02-04T01:55:03;100407.22;;;6.46;100.00
10921;BME280;5513;50.580;8.818;2023-02-04T01:57:33;100409.63;;;6.23;100.00
10921;BME280;5513;50.580;8.818;2023-02-04T02:00:08;100410.66;;;6.16;100.00
10921;BME280;5513;50.580;8.818;2023-02-04T02:02:39;100418.50;;;6.19;100.00
10921;BME280;5513;50.580;8.818;2023-02-04T02:05:09;100421.16;;;6.17;100.00
10921;BME280;5513;50.580;8.818;2023-02-04T02:07:40;100419.38;;;6.19;100.00
10921;BME280;5513;50.580;8.818;2023-02-04T02:10:11;100430.81;;;6.18;100.00
10921;BME280;5513;50.580;8.818;2023-02-04T02:12:39;100426.53;;;6.13;100.00
10921;BME280;5513;50.580;8.818;2023-02-04T02:15:12;100423.16;;;6.08;100.00
10921;BME280;5513;50.580;8.818;2023-02-04T02:17:41;100429.94;;;6.18;100.00
10921;BME280;5513;50.580;8.818;2023-02-04T02:20:12;100429.22;;;6.11;100.00
10921;BME280;5513;50.580;8.818;2023-02-04T02:22:54;100424.06;;;6.08;100.00
10921;BME280;5513;50.580;8.818;2023-02-04T02:25:27;100426.00;;;6.00;100.00
10921;BME280;5513;50.580;8.818;2023-02-04T02:27:56;100436.19;;;6.12;100.00
10921;BME280;5513;50.580;8.818;2023-02-04T02:30:26;100444.78;;;6.20;100.00
10921;BME280;5513;50.580;8.818;2023-02-04T02:32:56;100440.41;;;6.19;100.00
10921;BME280;5513;50.580;8.818;2023-02-04T02:35:24;100441.97;;;6.26;100.00
10921;BME280;5513;50.580;8.818;2023-02-04T02:37:53;100442.97;;;6.22;100.00
10921;BME280;5513;50.580;8.818;2023-02-04T02:40:21;100448.41;;;6.15;100.00
10921;BME280;5513;50.580;8.818;2023-02-04T02:42:51;100457.94;;;6.20;100.00
10921;BME280;5513;50.580;8.818;2023-02-04T02:45:22;100448.19;;;6.24;100.00
10921;BME280;5513;50.580;8.818;2023-02-04T02:47:51;100458.88;;;6.16;100.00
10921;BME280;5513;50.580;8.818;2023-02-04T02:50:22;100461.72;;;6.09;100.00
10921;BME280;5513;50.580;8.818;2023-02-04T02:52:52;100461.09;;;5.97;100.00
10921;BME280;5513;50.580;8.818;2023-02-04T02:55:23;100457.56;;;6.00;100.00
10921;BME280;5513;50.580;8.818;2023-02-04T02:57:54;100458.59;;;5.93;100.00
10921;BME280;5513;50.580;8.818;2023-02-04T03:00:25;100462.19;;;5.90;100.00
10921;BME280;5513;50.580;8.818;2023-02-04T03:02:57;100458.66;;;5.91;100.00
10921;BME280;5513;50.580;8.818;2023-02-04T03:05:29;100460.47;;;5.86;100.00
10921;BME280;5513;50.580;8.818;2023-02-04T03:07:59;100471.16;;;5.79;100.00
10921;BME280;5513;50.580;8.818;2023-02-04T03:10:27;100477.34;;;5.76;100.00
10921;BME280;5513;50.580;8.818;2023-02-04T03:12:58;100472.31;;;5.67;100.00
10921;BME280;5513;50.580;8.818;2023-02-04T03:15:27;100466.34;;;5.60;100.00
10921;BME280;5513;50.580;8.818;2023-02-04T03:17:55;100476.63;;;5.71;100.00
10921;BME280;5513;50.580;8.818;2023-02-04T03:20:24;100467.84;;;5.72;100.00
10921;BME280;5513;50.580;8.818;2023-02-04T03:22:56;100480.06;;;5.73;100.00
10921;BME280;5513;50.580;8.818;2023-02-04T03:25:25;100487.00;;;5.75;100.00
10921;BME280;5513;50.580;8.818;2023-02-04T03:27:54;100487.91;;;5.74;100.00
10921;BME280;5513;50.580;8.818;2023-02-04T03:30:28;100490.38;;;5.82;100.00
10921;BME280;5513;50.580;8.818;2023-02-04T03:32:57;100494.13;;;5.72;100.00
10921;BME280;5513;50.580;8.818;2023-02-04T03:35:25;100501.94;;;5.75;100.00
10921;BME280;5513;50.580;8.818;2023-02-04T03:37:53;100498.31;;;5.81;100.00
10921;BME280;5513;50.580;8.818;2023-02-04T03:40:21;100498.16;;;5.87;100.00
10921;BME280;5513;50.580;8.818;2023-02-04T03:42:50;100503.56;;;5.81;100.00
10921;BME280;5513;50.580;8.818;2023-02-04T03:45:18;100511.41;;;5.82;100.00
10921;BME280;5513;50.580;8.818;2023-02-04T03:47:48;100513.00;;;5.91;100.00
10921;BME280;5513;50.580;8.818;2023-02-04T03:50:19;100519.19;;;5.87;100.00
10921;BME280;5513;50.580;8.818;2023-02-04T03:52:47;100524.72;;;5.74;100.00
10921;BME280;5513;50.580;8.818;2023-02-04T03:55:17;100534.28;;;5.77;100.00
10921;BME280;5513;50.580;8.818;2023-02-04T03:57:45;100530.25;;;5.62;100.00
10921;BME280;5513;50.580;8.818;2023-02-04T04:00:14;100540.69;;;5.65;100.00
10921;BME280;5513;50.580;8.818;2023-02-04T04:02:44;100540.88;;;5.56;100.00
10921;BME280;5513;50.580;8.818;2023-02-04T04:05:14;100539.00;;;5.63;100.00
10921;BME280;5513;50.580;8.818;2023-02-04T04:07:42;100536.00;;;5.80;100.00
10921;BME280;5513;50.580;8.818;2023-02-04T04:10:18;100529.84;;;5.81;100.00
10921;BME280;5513;50.580;8.818;2023-02-04T04:12:47;100527.03;;;5.88;100.00
10921;BME280;5513;50.580;8.818;2023-02-04T04:15:16;100527.91;;;5.90;100.00
10921;BME280;5513;50.580;8.818;2023-02-04T04:17:44;100526.16;;;5.89;100.00
10921;BME280;5513;50.580;8.818;2023-02-04T04:20:14;100528.91;;;5.83;100.00
10921;BME280;5513;50.580;8.818;2023-02-04T04:22:43;100530.59;;;5.86;100.00
10921;BME280;5513;50.580;8.818;2023-02-04T04:25:13;100539.22;;;5.94;100.00
10921;BME280;5513;50.580;8.818;2023-02-04T04:27:41;100544.56;;;5.91;100.00
10921;BME280;5513;50.580;8.818;2023-02-04T04:30:10;100549.78;;;5.92;100.00
10921;BME280;5513;50.580;8.818;2023-02-04T04:32:39;100551.56;;;5.90;100.00
10921;BME280;5513;50.580;8.818;2023-02-04T04:35:07;100558.53;;;5.93;100.00
10921;BME280;5513;50.580;8.818;2023-02-04T04:37:37;100553.22;;;5.94;100.00
10921;BME280;5513;50.580;8.818;2023-02-04T04:40:07;100566.63;;;5.82;100.00
10921;BME280;5513;50.580;8.818;2023-02-04T04:42:36;100573.53;;;5.86;100.00
10921;BME280;5513;50.580;8.818;2023-02-04T04:45:06;100575.25;;;5.90;100.00
10921;BME280;5513;50.580;8.818;2023-02-04T04:47:35;100587.34;;;5.97;100.00
10921;BME280;5513;50.580;8.818;2023-02-04T04:50:04;100585.56;;;5.98;100.00
10921;BME280;5513;50.580;8.818;2023-02-04T04:52:33;100590.13;;;5.88;100.00
10921;BME280;5513;50.580;8.818;2023-02-04T04:55:03;100595.38;;;5.91;100.00
10921;BME280;5513;50.580;8.818;2023-02-04T04:57:33;100591.97;;;5.85;100.00
10921;BME280;5513;50.580;8.818;2023-02-04T05:00:03;100590.25;;;5.84;100.00
10921;BME280;5513;50.580;8.818;2023-02-04T05:02:31;100593.84;;;5.80;100.00
10921;BME280;5513;50.580;8.818;2023-02-04T05:05:00;100597.28;;;5.83;100.00
10921;BME280;5513;50.580;8.818;2023-02-04T05:07:28;100594.75;;;5.77;100.00
10921;BME280;5513;50.580;8.818;2023-02-04T05:09:57;100599.06;;;5.81;100.00
10921;BME280;5513;50.580;8.818;2023-02-04T05:12:27;100603.50;;;5.78;100.00
10921;BME280;5513;50.580;8.818;2023-02-04T05:14:56;100602.75;;;5.72;100.00
10921;BME280;5513;50.580;8.818;2023-02-04T05:17:25;100610.66;;;5.72;100.00
10921;BME280;5513;50.580;8.818;2023-02-04T05:19:54;100616.03;;;5.66;100.00
10921;BME280;5513;50.580;8.818;2023-02-04T05:22:22;100620.56;;;5.58;100.00
10921;BME280;5513;50.580;8.818;2023-02-04T05:24:50;100619.81;;;5.53;100.00
10921;BME280;5513;50.580;8.818;2023-02-04T05:27:18;100625.13;;;5.50;100.00
10921;BME280;5513;50.580;8.818;2023-02-04T05:29:51;100617.25;;;5.49;100.00
10921;BME280;5513;50.580;8.818;2023-02-04T05:32:19;100620.94;;;5.38;100.00
10921;BME280;5513;50.580;8.818;2023-02-04T05:34:47;100620.69;;;5.52;100.00
10921;BME280;5513;50.580;8.818;2023-02-04T05:37:16;100630.53;;;5.42;100.00
10921;BME280;5513;50.580;8.818;2023-02-04T05:39:46;100632.22;;;5.45;100.00
10921;BME280;5513;50.580;8.818;2023-02-04T05:42:14;100629.13;;;5.68;100.00
10921;BME280;5513;50.580;8.818;2023-02-04T05:44:43;100635.84;;;5.83;100.00
10921;BME280;5513;50.580;8.818;2023-02-04T05:47:13;100636.53;;;5.47;100.00
10921;BME280;5513;50.580;8.818;2023-02-04T05:49:44;100643.88;;;5.32;100.00
10921;BME280;5513;50.580;8.818;2023-02-04T05:52:12;100644.34;;;5.52;100.00
10921;BME280;5513;50.580;8.818;2023-02-04T05:54:42;100641.25;;;5.75;100.00
10921;BME280;5513;50.580;8.818;2023-02-04T05:57:13;100642.28;;;5.68;100.00
10921;BME280;5513;50.580;8.818;2023-02-04T05:59:42;100643.06;;;5.73;100.00
10921;BME280;5513;50.580;8.818;2023-02-04T06:02:10;100642.34;;;5.65;100.00
10921;BME280;5513;50.580;8.818;2023-02-04T06:04:48;100648.38;;;5.68;100.00
10921;BME280;5513;50.580;8.818;2023-02-04T06:07:17;100660.75;;;5.65;100.00
10921;BME280;5513;50.580;8.818;2023-02-04T06:09:45;100666.97;;;5.59;100.00
10921;BME280;5513;50.580;8.818;2023-02-04T06:12:13;100665.38;;;5.52;100.00
10921;BME280;5513;50.580;8.818;2023-02-04T06:14:42;100663.75;;;5.45;100.00
10921;BME280;5513;50.580;8.818;2023-02-04T06:17:11;100670.75;;;5.46;100.00
10921;BME280;5513;50.580;8.818;2023-02-04T06:19:39;100679.69;;;5.36;100.00
10921;BME280;5513;50.580;8.818;2023-02-04T06:22:09;100682.13;;;5.46;100.00
10921;BME280;5513;50.580;8.818;2023-02-04T06:24:38;100683.97;;;5.41;100.00
10921;BME280;5513;50.580;8.818;2023-02-04T06:27:07;100691.03;;;5.38;100.00
10921;BME280;5513;50.580;8.818;2023-02-04T06:29:36;100702.31;;;5.44;100.00
10921;BME280;5513;50.580;8.818;2023-02-04T06:32:12;100694.38;;;5.46;100.00
10921;BME280;5513;50.580;8.818;2023-02-04T06:34:40;100700.50;;;5.46;100.00
10921;BME280;5513;50.580;8.818;2023-02-04T06:37:10;100708.53;;;5.39;100.00
10921;BME280;5513;50.580;8.818;2023-02-04T06:39:39;100693.72;;;5.35;100.00
10921;BME280;5513;50.580;8.818;2023-02-04T06:42:09;100698.97;;;5.35;100.00
10921;BME280;5513;50.580;8.818;2023-02-04T06:44:38;100707.81;;;5.31;100.00
10921;BME280;5513;50.580;8.818;2023-02-04T06:47:06;100708.88;;;5.19;100.00
10921;BME280;5513;50.580;8.818;2023-02-04T06:49:42;100702.88;;;5.11;100.00
10921;BME280;5513;50.580;8.818;2023-02-04T06:52:12;100711.63;;;5.13;100.00
10921;BME280;5513;50.580;8.818;2023-02-04T06:54:41;100711.81;;;5.02;100.00
10921;BME280;5513;50.580;8.818;2023-02-04T06:57:09;100725.91;;;4.95;100.00
10921;BME280;5513;50.580;8.818;2023-02-04T06:59:39;100730.44;;;4.85;100.00
10921;BME280;5513;50.580;8.818;2023-02-04T07:02:10;100731.47;;;4.75;100.00
10921;BME280;5513;50.580;8.818;2023-02-04T07:04:38;100738.38;;;4.81;100.00
10921;BME280;5513;50.580;8.818;2023-02-04T07:07:07;100740.06;;;4.85;100.00
10921;BME280;5513;50.580;8.818;2023-02-04T07:09:37;100739.94;;;4.94;100.00
10921;BME280;5513;50.580;8.818;2023-02-04T07:12:06;100740.75;;;4.98;100.00
10921;BME280;5513;50.580;8.818;2023-02-04T07:14:34;100747.47;;;5.15;100.00
10921;BME280;5513;50.580;8.818;2023-02-04T07:17:03;100759.06;;;5.01;100.00
10921;BME280;5513;50.580;8.818;2023-02-04T07:19:31;100768.59;;;5.08;100.00
10921;BME280;5513;50.580;8.818;2023-02-04T07:22:01;100764.22;;;5.07;100.00
10921;BME280;5513;50.580;8.818;2023-02-04T07:24:29;100765.84;;;5.15;100.00
10921;BME280;5513;50.580;8.818;2023-02-04T07:27:01;100767.59;;;5.16;100.00
10921;BME280;5513;50.580;8.818;2023-02-04T07:29:29;100765.09;;;5.07;100.00
10921;BME280;5513;50.580;8.818;2023-02-04T07:31:58;100771.94;;;5.17;100.00
10921;BME280;5513;50.580;8.818;2023-02-04T07:34:26;100775.38;;;5.23;100.00
10921;BME280;5513;50.580;8.818;2023-02-04T07:36:55;100776.88;;;5.37;100.00
10921;BME280;5513;50.580;8.818;2023-02-04T07:39:24;100784.69;;;5.42;100.00
10921;BME280;5513;50.580;8.818;2023-02-04T07:41:52;100785.50;;;5.45;100.00
10921;BME280;5513;50.580;8.818;2023-02-04T07:44:25;100780.91;;;5.57;100.00
10921;BME280;5513;50.580;8.818;2023-02-04T07:46:53;100800.41;;;5.45;100.00
10921;BME280;5513;50.580;8.818;2023-02-04T07:49:23;100791.66;;;5.44;100.00
10921;BME280;5513;50.580;8.818;2023-02-04T07:51:53;100803.13;;;5.39;100.00
10921;BME280;5513;50.580;8.818;2023-02-04T07:54:23;100804.69;;;5.51;100.00
10921;BME280;5513;50.580;8.818;2023-02-04T07:56:52;100808.19;;;5.50;100.00
10921;BME280;5513;50.580;8.818;2023-02-04T07:59:20;100808.91;;;5.59;100.00
10921;BME280;5513;50.580;8.818;2023-02-04T08:01:50;100816.66;;;5.67;100.00
10921;BME280;5513;50.580;8.818;2023-02-04T08:04:18;100819.44;;;5.58;100.00
10921;BME280;5513;50.580;8.818;2023-02-04T08:06:47;100825.44;;;5.66;100.00
10921;BME280;5513;50.580;8.818;2023-02-04T08:09:15;100829.88;;;5.64;100.00
10921;BME280;5513;50.580;8.818;2023-02-04T08:11:44;100829.91;;;5.62;100.00
10921;BME280;5513;50.580;8.818;2023-02-04T08:14:14;100832.44;;;5.67;100.00
10921;BME280;5513;50.580;8.818;2023-02-04T08:16:42;100825.72;;;5.51;100.00
10921;BME280;5513;50.580;8.818;2023-02-04T08:19:11;100831.97;;;5.43;100.00
10921;BME280;5513;50.580;8.818;2023-02-04T08:21:44;100844.78;;;5.63;100.00
10921;BME280;5513;50.580;8.818;2023-02-04T08:24:15;100858.97;;;5.53;100.00
10921;BME280;5513;50.580;8.818;2023-02-04T08:26:44;100864.28;;;5.49;100.00
10921;BME280;5513;50.580;8.818;2023-02-04T08:29:12;100867.03;;;5.42;100.00
10921;BME280;5513;50.580;8.818;2023-02-04T08:31:40;100883.47;;;5.54;100.00
10921;BME280;5513;50.580;8.818;2023-02-04T08:34:08;100893.31;;;5.39;100.00
10921;BME280;5513;50.580;8.818;2023-02-04T08:36:38;100876.34;;;5.62;100.00
10921;BME280;5513;50.580;8.818;2023-02-04T08:39:06;100884.94;;;5.71;100.00
10921;BME280;5513;50.580;8.818;2023-02-04T08:41:34;100881.47;;;5.68;100.00
10921;BME280;5513;50.580;8.818;2023-02-04T08:44:03;100866.47;;;5.76;100.00
10921;BME280;5513;50.580;8.818;2023-02-04T08:46:31;100874.13;;;5.90;100.00
10921;BME280;5513;50.580;8.818;2023-02-04T08:48:59;100883.66;;;5.97;100.00
10921;BME280;5513;50.580;8.818;2023-02-04T08:51:28;100876.75;;;5.91;100.00
10921;BME280;5513;50.580;8.818;2023-02-04T08:53:58;100881.78;;;6.03;100.00
10921;BME280;5513;50.580;8.818;2023-02-04T08:56:26;100893.00;;;6.15;100.00
10921;BME280;5513;50.580;8.818;2023-02-04T08:58:56;100889.94;;;6.39;100.00
10921;BME280;5513;50.580;8.818;2023-02-04T09:01:24;100891.34;;;6.57;100.00
10921;BME280;5513;50.580;8.818;2023-02-04T09:03:53;100891.16;;;6.66;100.00
10921;BME280;5513;50.580;8.818;2023-02-04T09:06:22;100896.41;;;6.66;100.00
10921;BME280;5513;50.580;8.818;2023-02-04T09:08:50;100895.22;;;6.38;100.00
10921;BME280;5513;50.580;8.818;2023-02-04T09:11:21;100887.09;;;6.50;100.00
10921;BME280;5513;50.580;8.818;2023-02-04T09:13:50;100889.56;;;6.56;100.00
10921;BME280;5513;50.580;8.818;2023-02-04T09:16:18;100888.91;;;6.45;100.00
10921;BME280;5513;50.580;8.818;2023-02-04T09:18:49;100886.56;;;6.74;100.00
10921;BME280;5513;50.580;8.818;2023-02-04T09:21:19;100901.63;;;6.69;100.00
10921;BME280;5513;50.580;8.818;2023-02-04T09:23:50;100903.66;;;6.98;100.00
10921;BME280;5513;50.580;8.818;2023-02-04T09:26:22;100909.19;;;6.84;100.00
10921;BME280;5513;50.580;8.818;2023-02-04T09:29:04;100904.94;;;6.79;100.00
10921;BME280;5513;50.580;8.818;2023-02-04T09:31:34;100908.16;;;6.92;100.00
10921;BME280;5513;50.580;8.818;2023-02-04T09:34:03;100908.50;;;6.76;100.00
10921;BME280;5513;50.580;8.818;2023-02-04T09:36:31;100904.81;;;6.83;100.00
10921;BME280;5513;50.580;8.818;2023-02-04T09:39:06;100923.03;;;6.96;100.00
10921;BME280;5513;50.580;8.818;2023-02-04T09:41:37;100905.63;;;6.88;100.00
10921;BME280;5513;50.580;8.818;2023-02-04T09:44:12;100912.38;;;7.00;100.00
10921;BME280;5513;50.580;8.818;2023-02-04T09:46:45;100925.41;;;7.08;100.00
10921;BME280;5513;50.580;8.818;2023-02-04T09:49:16;100932.41;;;7.09;100.00
10921;BME280;5513;50.580;8.818;2023-02-04T09:51:45;100931.78;;;7.38;100.00
10921;BME280;5513;50.580;8.818;2023-02-04T09:54:16;100946.81;;;7.33;100.00
10921;BME280;5513;50.580;8.818;2023-02-04T09:56:47;100939.44;;;7.49;100.00
10921;BME280;5513;50.580;8.818;2023-02-04T09:59:18;100950.84;;;7.49;100.00
10921;BME280;5513;50.580;8.818;2023-02-04T10:01:51;100944.22;;;7.70;100.00
10921;BME280;5513;50.580;8.818;2023-02-04T10:04:23;100943.56;;;7.60;100.00
10921;BME280;5513;50.580;8.818;2023-02-04T10:06:53;100943.50;;;7.62;100.00
10921;BME280;5513;50.580;8.818;2023-02-04T10:09:24;100945.53;;;7.51;100.00
10921;BME280;5513;50.580;8.818;2023-02-04T10:11:56;100943.88;;;7.46;100.00
10921;BME280;5513;50.580;8.818;2023-02-04T10:14:25;100946.28;;;7.57;100.00
10921;BME280;5513;50.580;8.818;2023-02-04T10:16:56;100947.66;;;7.72;100.00
10921;BME280;5513;50.580;8.818;2023-02-04T10:19:26;100955.31;;;7.84;100.00
10921;BME280;5513;50.580;8.818;2023-02-04T10:21:56;100963.50;;;7.73;100.00
10921;BME280;5513;50.580;8.818;2023-02-04T10:24:26;100955.41;;;7.80;100.00
10921;BME280;5513;50.580;8.818;2023-02-04T10:27:07;100955.06;;;7.95;100.00
10921;BME280;5513;50.580;8.818;2023-02-04T10:29:36;100952.38;;;7.96;100.00
10921;BME280;5513;50.580;8.818;2023-02-04T10:32:25;100949.78;;;7.58;100.00
10921;BME280;5513;50.580;8.818;2023-02-04T10:35:00;100957.75;;;7.55;100.00
10921;BME280;5513;50.580;8.818;2023-02-04T10:37:28;100962.25;;;7.50;100.00
10921;BME280;5513;50.580;8.818;2023-02-04T10:39:58;100954.09;;;7.60;100.00
10921;BME280;5513;50.580;8.818;2023-02-04T10:42:28;100959.38;;;7.60;100.00
10921;BME280;5513;50.580;8.818;2023-02-04T10:44:57;100973.81;;;7.44;100.00
10921;BME280;5513;50.580;8.818;2023-02-04T10:47:27;100969.00;;;7.63;100.00
10921;BME280;5513;50.580;8.818;2023-02-04T10:50:00;100957.56;;;7.62;100.00
10921;BME280;5513;50.580;8.818;2023-02-04T10:52:34;100963.91;;;7.55;100.00
10921;BME280;5513;50.580;8.818;2023-02-04T10:55:07;100967.25;;;7.62;100.00
10921;BME280;5513;50.580;8.818;2023-02-04T10:57:39;100968.22;;;7.58;100.00
10921;BME280;5513;50.580;8.818;2023-02-04T11:00:15;100966.22;;;7.69;100.00
10921;BME280;5513;50.580;8.818;2023-02-04T11:02:48;100968.88;;;7.67;100.00
10921;BME280;5513;50.580;8.818;2023-02-04T11:05:20;100965.19;;;7.76;100.00
10921;BME280;5513;50.580;8.818;2023-02-04T11:07:50;100963.91;;;7.92;100.00
10921;BME280;5513;50.580;8.818;2023-02-04T11:10:21;100964.75;;;7.94;100.00
10921;BME280;5513;50.580;8.818;2023-02-04T11:13:01;100961.88;;;7.66;100.00
10921;BME280;5513;50.580;8.818;2023-02-04T11:15:42;100951.97;;;8.13;100.00
10921;BME280;5513;50.580;8.818;2023-02-04T11:18:27;100957.72;;;8.63;100.00
10921;BME280;5513;50.580;8.818;2023-02-04T11:20:57;100953.41;;;8.60;100.00
10921;BME280;5513;50.580;8.818;2023-02-04T11:23:32;100960.56;;;8.88;100.00
10921;BME280;5513;50.580;8.818;2023-02-04T11:26:03;100960.63;;;9.16;100.00
10921;BME280;5513;50.580;8.818;2023-02-04T11:28:49;100971.34;;;9.11;100.00
10921;BME280;5513;50.580;8.818;2023-02-04T11:31:41;100968.75;;;9.10;100.00
10921;BME280;5513;50.580;8.818;2023-02-04T11:34:25;100963.31;;;9.14;100.00
10921;BME280;5513;50.580;8.818;2023-02-04T11:37:03;100974.16;;;9.35;100.00
10921;BME280;5513;50.580;8.818;2023-02-04T11:39:36;100968.56;;;9.45;100.00
10921;BME280;5513;50.580;8.818;2023-02-04T11:42:16;100977.44;;;9.72;100.00
10921;BME280;5513;50.580;8.818;2023-02-04T11:45:12;100976.78;;;9.64;100.00
10921;BME280;5513;50.580;8.818;2023-02-04T11:47:43;100966.78;;;9.74;100.00
10921;BME280;5513;50.580;8.818;2023-02-04T11:50:16;100976.53;;;9.44;100.00
10921;BME280;5513;50.580;8.818;2023-02-04T11:52:47;100974.53;;;9.52;100.00
10921;BME280;5513;50.580;8.818;2023-02-04T11:55:17;100972.38;;;9.35;100.00
10921;BME280;5513;50.580;8.818;2023-02-04T11:57:50;100972.75;;;9.53;100.00
10921;BME280;5513;50.580;8.818;2023-02-04T12:00:23;100965.31;;;8.75;100.00
10921;BME280;5513;50.580;8.818;2023-02-04T12:02:56;100977.47;;;9.43;100.00
10921;BME280;5513;50.580;8.818;2023-02-04T12:05:38;100967.16;;;9.34;100.00
10921;BME280;5513;50.580;8.818;2023-02-04T12:08:12;100967.41;;;9.56;100.00
10921;BME280;5513;50.580;8.818;2023-02-04T12:10:47;100968.25;;;9.56;100.00
10921;BME280;5513;50.580;8.818;2023-02-04T12:13:20;100963.84;;;9.55;100.00
10921;BME280;5513;50.580;8.818;2023-02-04T12:16:09;100963.00;;;10.37;100.00
10921;BME280;5513;50.580;8.818;2023-02-04T12:18:37;100973.13;;;10.51;100.00
10921;BME280;5513;50.580;8.818;2023-02-04T12:21:06;100976.25;;;10.87;100.00
10921;BME280;5513;50.580;8.818;2023-02-04T12:23:36;100965.53;;;10.90;100.00
10921;BME280;5513;50.580;8.818;2023-02-04T12:26:04;100976.66;;;11.00;100.00
10921;BME280;5513;50.580;8.818;2023-02-04T12:28:34;100978.28;;;10.29;100.00
10921;BME280;5513;50.580;8.818;2023-02-04T12:31:03;100981.72;;;10.04;100.00
10921;BME280;5513;50.580;8.818;2023-02-04T12:33:33;100986.44;;;9.95;100.00
10921;BME280;5513;50.580;8.818;2023-02-04T12:36:01;100986.91;;;9.80;100.00
10921;BME280;5513;50.580;8.818;2023-02-04T12:38:32;100987.66;;;9.55;100.00
10921;BME280;5513;50.580;8.818;2023-02-04T12:41:00;100977.88;;;9.29;100.00
10921;BME280;5513;50.580;8.818;2023-02-04T12:43:30;100982.69;;;9.46;100.00
10921;BME280;5513;50.580;8.818;2023-02-04T12:45:59;100986.34;;;9.11;100.00
10921;BME280;5513;50.580;8.818;2023-02-04T12:48:33;100979.63;;;9.30;100.00
10921;BME280;5513;50.580;8.818;2023-02-04T12:51:02;100990.28;;;9.57;100.00
10921;BME280;5513;50.580;8.818;2023-02-04T12:53:32;100994.00;;;10.07;100.00
10921;BME280;5513;50.580;8.818;2023-02-04T12:56:03;100994.66;;;10.14;100.00
10921;BME280;5513;50.580;8.818;2023-02-04T12:58:32;101001.19;;;9.75;100.00
10921;BME280;5513;50.580;8.818;2023-02-04T13:01:01;101003.53;;;9.85;100.00
10921;BME280;5513;50.580;8.818;2023-02-04T13:03:30;100991.50;;;9.45;100.00
10921;BME280;5513;50.580;8.818;2023-02-04T13:12:14;100977.09;;;9.83;100.00
10921;BME280;5513;50.580;8.818;2023-02-04T13:14:43;100985.59;;;9.65;100.00
10921;BME280;5513;50.580;8.818;2023-02-04T13:17:11;100982.03;;;9.67;100.00
10921;BME280;5513;50.580;8.818;2023-02-04T13:19:41;100973.22;;;9.93;100.00
10921;BME280;5513;50.580;8.818;2023-02-04T13:22:10;100975.03;;;9.65;100.00